createdAt,value
2023-05-16T00:01:54.295Z,12.24
2023-05-16T00:04:26.221Z,12.25
2023-05-16T00:06:57.034Z,12.27
2023-05-16T00:09:27.574Z,12.29
2023-05-16T00:11:58.745Z,12.32
2023-05-16T00:14:29.548Z,12.32
2023-05-16T00:17:01.317Z,12.31
2023-05-16T00:19:32.874Z,12.28
2023-05-16T00:22:05.535Z,12.24
2023-05-16T00:24:36.673Z,12.21
2023-05-16T00:27:07.751Z,12.18
2023-05-16T00:29:38.386Z,12.13
2023-05-16T00:32:11.391Z,12.10
2023-05-16T00:34:42.921Z,12.06
2023-05-16T00:37:13.409Z,12.01
2023-05-16T00:39:43.584Z,11.98
2023-05-16T00:42:14.899Z,11.93
2023-05-16T00:44:45.762Z,11.86
2023-05-16T00:47:16.226Z,11.81
2023-05-16T00:49:46.773Z,11.77
2023-05-16T00:52:17.457Z,11.75
2023-05-16T00:54:47.692Z,11.73
2023-05-16T00:57:18.727Z,11.74
2023-05-16T00:59:49.967Z,11.74
2023-05-16T01:02:20.279Z,11.76
2023-05-16T01:04:51.657Z,11.78
2023-05-16T01:07:22.985Z,11.79
2023-05-16T01:09:53.255Z,11.79
2023-05-16T01:12:27.862Z,11.79
2023-05-16T01:15:03.159Z,11.78
2023-05-16T01:17:43.371Z,11.73
2023-05-16T01:20:20.194Z,11.68
2023-05-16T01:23:01.951Z,11.63
2023-05-16T01:25:57.845Z,11.58
2023-05-16T01:28:29.976Z,11.52
2023-05-16T01:31:01.131Z,11.48
2023-05-16T01:33:31.427Z,11.45
2023-05-16T01:36:07.781Z,11.41
2023-05-16T01:38:41.516Z,11.39
2023-05-16T01:41:17.095Z,11.37
2023-05-16T01:43:52.290Z,11.37
2023-05-16T01:46:26.177Z,11.38
2023-05-16T01:49:03.097Z,11.41
2023-05-16T01:51:35.263Z,11.44
2023-05-16T01:54:09.166Z,11.48
2023-05-16T01:56:39.802Z,11.50
2023-05-16T01:59:11.116Z,11.53
2023-05-16T02:01:41.450Z,11.56
2023-05-16T02:04:15.070Z,11.59
2023-05-16T02:06:46.600Z,11.60
2023-05-16T02:09:17.594Z,11.61
2023-05-16T02:11:48.498Z,11.63
2023-05-16T02:14:19.800Z,11.65
2023-05-16T02:16:50.735Z,11.66
2023-05-16T02:19:21.089Z,11.67
2023-05-16T02:21:51.995Z,11.68
2023-05-16T02:24:22.986Z,11.71
2023-05-16T02:26:53.422Z,11.77
2023-05-16T02:29:24.192Z,11.94
2023-05-16T02:31:55.822Z,12.51
2023-05-16T02:34:26.837Z,13.24
2023-05-16T02:36:57.821Z,14.01
2023-05-16T02:39:28.672Z,14.79
2023-05-16T02:41:59.584Z,15.55
2023-05-16T02:44:29.698Z,16.30
2023-05-16T02:47:00.895Z,17.03
2023-05-16T02:49:31.399Z,17.77
2023-05-16T02:52:01.475Z,18.50
2023-05-16T02:54:32.436Z,19.21
2023-05-16T02:57:03.916Z,19.93
2023-05-16T02:59:34.525Z,20.66
2023-05-16T03:02:05.330Z,21.36
2023-05-16T03:04:35.641Z,22.07
2023-05-16T03:07:06.490Z,22.73
2023-05-16T03:09:36.991Z,23.30
2023-05-16T03:12:09.407Z,23.90
2023-05-16T03:14:39.699Z,24.52
2023-05-16T03:17:10.522Z,25.11
2023-05-16T03:19:40.734Z,25.71
2023-05-16T03:22:10.979Z,26.24
2023-05-16T03:24:41.480Z,26.82
2023-05-16T03:27:12.261Z,27.45
2023-05-16T03:29:42.903Z,28.00
2023-05-16T03:32:13.858Z,28.47
2023-05-16T03:34:44.001Z,28.94
2023-05-16T03:37:16.100Z,29.29
2023-05-16T03:39:46.639Z,29.51
2023-05-16T03:42:18.095Z,29.92
2023-05-16T03:44:48.871Z,30.44
2023-05-16T03:47:19.157Z,30.96
2023-05-16T03:49:49.506Z,31.45
2023-05-16T03:52:19.752Z,31.97
2023-05-16T03:54:49.980Z,32.38
2023-05-16T03:57:20.075Z,32.65
2023-05-16T03:59:50.855Z,32.82
2023-05-16T04:02:21.067Z,33.17
2023-05-16T04:04:52.437Z,33.66
2023-05-16T04:07:25.445Z,34.19
2023-05-16T04:09:55.932Z,34.71
2023-05-16T04:12:26.851Z,35.28
2023-05-16T04:14:57.420Z,35.81
2023-05-16T04:17:28.849Z,36.33
2023-05-16T04:20:00.003Z,36.72
2023-05-16T04:22:30.700Z,37.16
2023-05-16T04:25:04.199Z,37.67
2023-05-16T04:27:34.376Z,38.03
2023-05-16T04:30:05.419Z,38.43
2023-05-16T04:32:36.772Z,38.87
2023-05-16T04:35:08.921Z,39.23
2023-05-16T04:37:39.317Z,39.37
2023-05-16T04:40:12.813Z,39.54
2023-05-16T04:42:43.160Z,39.76
2023-05-16T04:45:14.387Z,39.91
2023-05-16T04:47:44.559Z,40.04
2023-05-16T04:50:15.898Z,39.93
2023-05-16T04:52:46.464Z,39.92
2023-05-16T04:55:16.919Z,40.44
2023-05-16T04:57:47.225Z,41.04
2023-05-16T05:00:18.790Z,41.48
2023-05-16T05:02:48.963Z,41.42
2023-05-16T05:05:20.004Z,41.43
2023-05-16T05:07:50.283Z,41.55
2023-05-16T05:10:20.710Z,41.98
2023-05-16T05:12:50.956Z,42.45
2023-05-16T05:15:21.359Z,43.03
2023-05-16T05:17:51.565Z,43.47
2023-05-16T05:20:22.496Z,43.34
2023-05-16T05:22:52.670Z,43.09
2023-05-16T05:25:22.880Z,42.91
2023-05-16T05:27:52.848Z,42.53
2023-05-16T05:30:23.327Z,42.33
2023-05-16T05:32:54.608Z,42.37
2023-05-16T05:35:24.892Z,42.10
2023-05-16T05:37:55.767Z,42.00
2023-05-16T05:40:26.098Z,42.36
2023-05-16T05:42:56.510Z,42.46
2023-05-16T05:45:27.403Z,42.39
2023-05-16T05:47:57.965Z,42.77
2023-05-16T05:50:28.204Z,43.17
2023-05-16T05:52:58.519Z,43.33
2023-05-16T05:55:28.943Z,42.95
2023-05-16T05:57:59.384Z,43.14
2023-05-16T06:00:29.894Z,43.71
2023-05-16T06:03:00.246Z,44.07
2023-05-16T06:05:30.953Z,44.61
2023-05-16T06:08:01.272Z,45.23
2023-05-16T06:10:31.956Z,45.90
2023-05-16T06:13:02.092Z,46.34
2023-05-16T06:15:32.269Z,46.85
2023-05-16T06:18:02.425Z,46.80
2023-05-16T06:20:33.087Z,46.80
2023-05-16T06:23:03.211Z,46.76
2023-05-16T06:25:33.540Z,46.80
2023-05-16T06:28:03.934Z,46.88
2023-05-16T06:30:34.923Z,46.97
2023-05-16T06:33:05.641Z,46.92
2023-05-16T06:35:35.723Z,46.93
2023-05-16T06:38:06.057Z,46.79
2023-05-16T06:40:36.282Z,46.54
2023-05-16T06:43:06.695Z,46.29
2023-05-16T06:45:36.967Z,46.03
2023-05-16T06:48:08.524Z,45.71
2023-05-16T06:50:38.790Z,45.41
2023-05-16T06:53:09.298Z,45.40
2023-05-16T06:55:39.497Z,45.69
2023-05-16T06:58:09.770Z,45.81
2023-05-16T07:00:40.136Z,45.48
2023-05-16T07:03:10.798Z,45.29
2023-05-16T07:05:42.073Z,45.21
2023-05-16T07:08:12.333Z,44.46
2023-05-16T07:10:42.592Z,42.62
2023-05-16T07:13:13.182Z,40.42
2023-05-16T07:15:43.491Z,38.43
2023-05-16T07:18:13.938Z,36.65
2023-05-16T07:20:44.176Z,35.18
2023-05-16T07:23:14.376Z,33.98
2023-05-16T07:25:44.980Z,33.23
2023-05-16T07:28:15.612Z,32.65
2023-05-16T07:30:46.688Z,32.15
2023-05-16T07:33:16.909Z,31.73
2023-05-16T07:35:47.176Z,31.33
2023-05-16T07:38:17.831Z,31.03
2023-05-16T07:40:47.936Z,30.76
2023-05-16T07:43:18.121Z,30.38
2023-05-16T07:45:48.360Z,30.01
2023-05-16T07:48:18.882Z,29.74
2023-05-16T07:50:49.704Z,29.59
2023-05-16T07:53:19.821Z,29.51
2023-05-16T07:55:50.433Z,29.25
2023-05-16T07:58:20.676Z,28.94
2023-05-16T08:00:52.706Z,28.60
2023-05-16T08:03:23.206Z,28.12
2023-05-16T08:05:54.522Z,27.90
2023-05-16T08:08:24.919Z,27.75
2023-05-16T08:10:55.211Z,27.61
2023-05-16T08:13:25.702Z,27.58
2023-05-16T08:15:56.307Z,27.57
2023-05-16T08:18:26.771Z,27.53
2023-05-16T08:20:59.258Z,27.38
2023-05-16T08:23:29.881Z,27.18
2023-05-16T08:26:00.231Z,26.98
2023-05-16T08:28:30.682Z,26.91
2023-05-16T08:31:01.549Z,26.89
2023-05-16T08:33:32.253Z,26.84
2023-05-16T08:36:02.812Z,26.79
2023-05-16T08:38:33.360Z,26.76
2023-05-16T08:41:05.570Z,26.75
2023-05-16T08:43:36.535Z,26.66
2023-05-16T08:46:08.867Z,26.51
2023-05-16T08:48:40.317Z,26.41
2023-05-16T08:51:11.700Z,26.33
2023-05-16T08:53:46.464Z,26.26
2023-05-16T08:56:18.091Z,26.06
2023-05-16T08:58:48.460Z,25.91
2023-05-16T09:01:19.340Z,25.84
2023-05-16T09:03:50.209Z,25.79
2023-05-16T09:06:20.646Z,25.67
2023-05-16T09:08:51.278Z,25.56
2023-05-16T09:11:22.147Z,25.51
2023-05-16T09:13:52.398Z,25.46
2023-05-16T09:16:23.517Z,25.42
2023-05-16T09:18:58.243Z,25.36
2023-05-16T09:21:31.754Z,25.34
2023-05-16T09:24:05.807Z,25.29
2023-05-16T09:26:37.944Z,25.19
2023-05-16T09:29:13.275Z,25.09
2023-05-16T09:31:44.837Z,24.99
2023-05-16T09:34:15.445Z,24.96
2023-05-16T09:36:46.386Z,24.99
2023-05-16T09:39:17.512Z,25.06
2023-05-16T09:41:48.068Z,25.12
2023-05-16T09:44:19.855Z,25.10
2023-05-16T09:46:50.876Z,25.06
2023-05-16T09:49:21.193Z,25.09
2023-05-16T09:51:52.243Z,25.07
2023-05-16T09:54:34.451Z,25.03
2023-05-16T09:57:05.813Z,25.03
2023-05-16T09:59:38.964Z,24.84
2023-05-16T10:02:09.950Z,24.76
2023-05-16T10:04:43.271Z,24.76
2023-05-16T10:07:14.447Z,24.62
2023-05-16T10:09:46.330Z,24.56
2023-05-16T10:12:17.204Z,24.59
2023-05-16T10:14:50.420Z,24.57
2023-05-16T10:17:23.254Z,24.47
2023-05-16T10:19:56.083Z,24.41
2023-05-16T10:22:28.055Z,24.40
2023-05-16T10:25:01.665Z,24.45
2023-05-16T10:27:32.673Z,24.48
2023-05-16T10:30:04.638Z,24.48
2023-05-16T10:32:35.042Z,24.47
2023-05-16T10:35:06.090Z,24.47
2023-05-16T10:37:37.315Z,24.53
2023-05-16T10:40:10.526Z,24.57
2023-05-16T10:42:40.845Z,24.58
2023-05-16T10:45:19.934Z,24.55
2023-05-16T10:47:59.769Z,24.47
2023-05-16T10:50:38.370Z,24.43
2023-05-16T10:53:22.487Z,24.40
2023-05-16T10:56:07.497Z,24.37
2023-05-16T10:58:49.765Z,24.28
2023-05-16T11:01:23.418Z,24.24
2023-05-16T11:04:14.012Z,24.23
2023-05-16T11:06:51.842Z,24.23
2023-05-16T11:09:27.238Z,24.20
2023-05-16T11:12:01.182Z,24.21
2023-05-16T11:14:44.920Z,24.16
2023-05-16T11:17:17.248Z,24.08
2023-05-16T11:19:49.386Z,24.00
2023-05-16T11:22:27.291Z,23.98
2023-05-16T11:25:00.395Z,24.02
2023-05-16T11:27:31.779Z,23.99
2023-05-16T11:30:12.619Z,24.00
2023-05-16T11:32:44.545Z,23.98
2023-05-16T11:35:18.674Z,23.98
2023-05-16T11:37:50.320Z,24.01
2023-05-16T11:40:20.508Z,24.05
2023-05-16T11:42:51.099Z,24.09
2023-05-16T11:45:24.776Z,24.17
2023-05-16T11:47:56.082Z,24.18
2023-05-16T11:50:26.595Z,24.16
2023-05-16T11:52:57.373Z,24.18
2023-05-16T11:55:41.336Z,24.22
2023-05-16T11:58:12.708Z,24.23
2023-05-16T12:00:51.226Z,24.23
2023-05-16T12:03:23.996Z,24.25
2023-05-16T12:05:56.946Z,24.28
2023-05-16T12:08:27.258Z,24.37
2023-05-16T12:10:58.369Z,24.43
2023-05-16T12:13:28.911Z,24.44
2023-05-16T12:15:59.358Z,24.50
2023-05-16T12:18:29.579Z,24.58
2023-05-16T12:21:02.042Z,24.58
2023-05-16T12:23:35.046Z,24.55
2023-05-16T12:26:07.709Z,24.56
2023-05-16T12:28:40.738Z,24.51
2023-05-16T12:31:31.198Z,24.44
2023-05-16T12:34:02.729Z,24.40
2023-05-16T12:36:36.327Z,24.35
2023-05-16T12:39:09.667Z,24.35
2023-05-16T12:41:44.114Z,24.42
2023-05-16T12:44:17.331Z,24.46
2023-05-16T12:46:52.545Z,24.54
2023-05-16T12:49:23.441Z,24.60
2023-05-16T12:51:54.821Z,24.69
2023-05-16T12:54:25.266Z,24.78
2023-05-16T12:56:55.727Z,24.87
2023-05-16T12:59:26.772Z,24.96
2023-05-16T13:01:57.520Z,25.07
2023-05-16T13:04:28.182Z,25.18
2023-05-16T13:11:13.427Z,25.16
2023-05-16T13:13:43.937Z,25.16
2023-05-16T13:16:15.462Z,25.18
2023-05-16T13:18:51.644Z,25.25
2023-05-16T13:21:48.275Z,25.36
2023-05-16T13:24:20.126Z,25.47
2023-05-16T13:26:50.678Z,25.50
2023-05-16T13:29:22.496Z,25.47
2023-05-16T13:31:53.310Z,25.47
2023-05-16T13:34:23.506Z,25.47
2023-05-16T13:36:54.758Z,25.48
2023-05-16T13:39:25.474Z,25.53
2023-05-16T13:41:55.917Z,25.59
2023-05-16T13:44:26.840Z,25.67
2023-05-16T13:46:57.550Z,25.73
2023-05-16T13:49:28.392Z,25.78
2023-05-16T13:51:58.911Z,25.86
2023-05-16T13:54:36.197Z,25.89
2023-05-16T13:57:11.222Z,25.86
2023-05-16T14:00:44.478Z,25.84
2023-05-16T14:14:00.043Z,26.16
2023-05-16T14:16:38.454Z,26.02
2023-05-16T14:19:13.194Z,25.90
2023-05-16T14:22:49.854Z,25.84
2023-05-16T14:27:32.059Z,25.74
2023-05-16T14:30:05.353Z,25.73
2023-05-16T14:32:37.126Z,25.70
2023-05-16T14:35:11.560Z,25.62
2023-05-16T14:37:42.121Z,25.50
2023-05-16T14:40:14.132Z,25.29
2023-05-16T14:42:45.031Z,25.17
2023-05-16T14:45:16.276Z,25.10
2023-05-16T14:47:46.606Z,24.99
2023-05-16T14:50:17.401Z,24.94
2023-05-16T14:52:47.582Z,24.87
2023-05-16T14:55:23.826Z,24.79
2023-05-16T14:57:59.566Z,24.70
2023-05-16T15:00:32.304Z,24.63
2023-05-16T15:03:02.644Z,24.61
2023-05-16T15:05:33.280Z,24.58
2023-05-16T15:08:04.176Z,24.49
2023-05-16T15:10:36.752Z,24.41
2023-05-16T15:13:09.714Z,24.26
2023-05-16T15:15:40.305Z,24.02
2023-05-16T15:18:11.736Z,23.86
2023-05-16T15:20:42.588Z,23.77
2023-05-16T15:23:12.738Z,23.67
2023-05-16T15:25:46.204Z,23.59
2023-05-16T15:28:16.621Z,23.46
2023-05-16T15:30:49.697Z,23.32
2023-05-16T15:33:20.010Z,23.18
2023-05-16T15:35:51.881Z,23.03
2023-05-16T15:38:22.121Z,22.88
2023-05-16T15:41:05.018Z,22.75
2023-05-16T15:43:43.343Z,22.62
2023-05-16T15:46:13.893Z,22.48
2023-05-16T15:48:44.796Z,22.37
2023-05-16T15:51:16.141Z,22.25
2023-05-16T15:53:48.372Z,22.14
2023-05-16T15:56:19.110Z,22.03
2023-05-16T15:58:49.402Z,21.92
2023-05-16T16:01:19.708Z,21.80
2023-05-16T16:03:50.107Z,21.69
2023-05-16T16:06:20.492Z,21.58
2023-05-16T16:08:52.800Z,21.46
2023-05-16T16:11:24.766Z,21.34
2023-05-16T16:13:56.967Z,21.25
2023-05-16T16:16:27.770Z,21.16
2023-05-16T16:18:58.403Z,21.07
2023-05-16T16:21:28.842Z,21.00
2023-05-16T16:24:00.489Z,20.91
2023-05-16T16:26:31.961Z,20.84
2023-05-16T16:29:02.278Z,20.77
2023-05-16T16:31:32.658Z,20.69
2023-05-16T16:34:03.258Z,20.62
2023-05-16T16:36:33.570Z,20.52
2023-05-16T16:39:05.541Z,20.44
2023-05-16T16:41:36.885Z,20.38
2023-05-16T16:44:07.516Z,20.32
2023-05-16T16:46:38.031Z,20.25
2023-05-16T16:49:12.563Z,20.18
2023-05-16T16:51:42.989Z,20.11
2023-05-16T16:54:19.155Z,20.04
2023-05-16T16:56:50.042Z,19.99
2023-05-16T16:59:20.802Z,19.93
2023-05-16T17:01:51.481Z,19.87
2023-05-16T17:04:24.271Z,19.82
2023-05-16T17:06:54.471Z,19.77
2023-05-16T17:09:26.853Z,19.72
2023-05-16T17:11:57.354Z,19.68
2023-05-16T17:14:28.355Z,19.64
2023-05-16T17:16:59.210Z,19.60
2023-05-16T17:19:30.449Z,19.56
2023-05-16T17:22:01.022Z,19.52
2023-05-16T17:24:31.337Z,19.48
2023-05-16T17:27:01.779Z,19.45
2023-05-16T17:29:32.242Z,19.40
2023-05-16T17:32:02.557Z,19.37
2023-05-16T17:34:33.261Z,19.34
2023-05-16T17:37:06.292Z,19.30
2023-05-16T17:39:37.462Z,19.24
2023-05-16T17:42:09.272Z,19.18
2023-05-16T17:44:40.893Z,19.15
2023-05-16T17:47:11.179Z,19.10
2023-05-16T17:49:41.563Z,19.05
2023-05-16T17:52:11.824Z,19.00
2023-05-16T17:54:42.209Z,18.96
2023-05-16T17:57:13.100Z,18.91
2023-05-16T17:59:43.494Z,18.87
2023-05-16T18:02:16.186Z,18.82
2023-05-16T18:04:47.930Z,18.78
2023-05-16T18:07:18.248Z,18.73
2023-05-16T18:09:48.634Z,18.70
2023-05-16T18:12:20.592Z,18.66
2023-05-16T18:14:51.461Z,18.59
2023-05-16T18:17:22.540Z,18.53
2023-05-16T18:19:52.944Z,18.49
2023-05-16T18:22:23.194Z,18.46
2023-05-16T18:24:53.650Z,18.42
2023-05-16T18:27:24.458Z,18.38
2023-05-16T18:29:55.278Z,18.35
2023-05-16T18:32:26.179Z,18.30
2023-05-16T18:34:57.767Z,18.25
2023-05-16T18:37:28.291Z,18.20
2023-05-16T18:39:58.785Z,18.16
2023-05-16T18:42:29.794Z,18.12
2023-05-16T18:44:59.921Z,18.09
2023-05-16T18:47:30.822Z,18.05
2023-05-16T18:50:04.763Z,18.01
2023-05-16T18:52:37.933Z,17.97
2023-05-16T18:55:10.079Z,17.92
2023-05-16T18:57:40.869Z,17.88
2023-05-16T19:00:13.337Z,17.84
2023-05-16T19:02:52.334Z,17.83
2023-05-16T19:05:23.370Z,17.78
2023-05-16T19:07:54.038Z,17.75
2023-05-16T19:10:24.936Z,17.70
2023-05-16T19:12:56.473Z,17.67
2023-05-16T19:15:27.094Z,17.64
2023-05-16T19:17:57.670Z,17.61
2023-05-16T19:20:28.552Z,17.57
2023-05-16T19:22:59.121Z,17.53
2023-05-16T19:25:32.301Z,17.50
2023-05-16T19:28:02.897Z,17.46
2023-05-16T19:30:33.369Z,17.43
2023-05-16T19:33:03.878Z,17.38
2023-05-16T19:35:36.851Z,17.34
2023-05-16T19:38:07.535Z,17.30
2023-05-16T19:40:38.437Z,17.26
2023-05-16T19:43:08.586Z,17.22
2023-05-16T19:45:40.006Z,17.18
2023-05-16T19:48:10.459Z,17.14
2023-05-16T19:50:43.233Z,17.11
2023-05-16T19:53:17.791Z,17.08
2023-05-16T19:55:49.258Z,17.05
2023-05-16T19:58:19.745Z,17.01
2023-05-16T20:00:51.006Z,16.97
2023-05-16T20:03:21.586Z,16.94
2023-05-16T20:05:51.895Z,16.90
2023-05-16T20:08:22.163Z,16.87
2023-05-16T20:10:53.919Z,16.84
2023-05-16T20:13:25.394Z,16.80
2023-05-16T20:15:55.519Z,16.77
2023-05-16T20:18:26.738Z,16.74
2023-05-16T20:20:58.593Z,16.70
2023-05-16T20:23:29.170Z,16.67
2023-05-16T20:25:59.970Z,16.64
2023-05-16T20:28:30.491Z,16.60
2023-05-16T20:31:01.440Z,16.56
2023-05-16T20:33:32.791Z,16.52
2023-05-16T20:36:03.260Z,16.47
2023-05-16T20:38:33.577Z,16.44
2023-05-16T20:41:04.788Z,16.40
2023-05-16T20:43:34.958Z,16.35
2023-05-16T20:46:05.158Z,16.33
2023-05-16T20:48:35.412Z,16.31
2023-05-16T20:51:06.529Z,16.28
2023-05-16T20:53:39.597Z,16.25
2023-05-16T20:56:10.121Z,16.23
2023-05-16T20:58:41.804Z,16.20
2023-05-16T21:01:12.345Z,16.17
2023-05-16T21:03:42.858Z,16.14
2023-05-16T21:06:15.049Z,16.11
2023-05-16T21:08:46.224Z,16.08
2023-05-16T21:11:18.784Z,16.05
2023-05-16T21:13:49.668Z,16.01
2023-05-16T21:16:19.928Z,15.99
2023-05-16T21:18:50.159Z,15.98
2023-05-16T21:21:20.561Z,15.96
2023-05-16T21:23:51.058Z,15.94
2023-05-16T21:26:21.397Z,15.92
2023-05-16T21:28:55.584Z,15.89
2023-05-16T21:31:26.281Z,15.87
2023-05-16T21:33:56.730Z,15.85
2023-05-16T21:36:27.029Z,15.84
2023-05-16T21:38:57.048Z,15.82
2023-05-16T21:41:27.560Z,15.79
2023-05-16T21:43:58.082Z,15.75
2023-05-16T21:46:28.662Z,15.70
2023-05-16T21:48:58.907Z,15.63
2023-05-16T21:51:29.717Z,15.58
2023-05-16T21:53:59.876Z,15.56
2023-05-16T21:56:30.510Z,15.54
2023-05-16T21:59:01.107Z,15.53
2023-05-16T22:01:32.799Z,15.52
2023-05-16T22:04:03.061Z,15.51
2023-05-16T22:06:33.663Z,15.50
2023-05-16T22:09:03.953Z,15.49
2023-05-16T22:11:34.152Z,15.48
2023-05-16T22:14:04.418Z,15.47
2023-05-16T22:16:34.749Z,15.47
2023-05-16T22:31:45.682Z,15.99
2023-05-16T22:34:19.600Z,16.03
2023-05-16T22:36:53.396Z,15.96
2023-05-16T22:39:27.195Z,15.91
2023-05-16T22:42:01.640Z,15.85
2023-05-16T22:44:35.555Z,15.78
2023-05-16T22:47:10.329Z,15.73
2023-05-16T22:49:44.435Z,15.70
2023-05-16T22:52:18.287Z,15.66
2023-05-16T22:54:52.202Z,15.63
2023-05-16T22:57:27.063Z,15.58
2023-05-16T23:00:02.131Z,15.56
2023-05-16T23:02:36.249Z,15.54
2023-05-16T23:05:11.358Z,15.52
2023-05-16T23:07:46.111Z,15.51
2023-05-16T23:10:19.741Z,15.51
2023-05-16T23:12:53.295Z,15.51
2023-05-16T23:15:29.152Z,15.51
2023-05-16T23:18:03.236Z,15.51
2023-05-16T23:20:36.856Z,15.51
2023-05-16T23:23:11.202Z,15.51
2023-05-16T23:25:44.783Z,15.49
2023-05-16T23:28:19.505Z,15.47
2023-05-16T23:30:53.968Z,15.45
2023-05-16T23:33:28.703Z,15.41
2023-05-16T23:36:02.373Z,15.39
2023-05-16T23:38:37.473Z,15.37
2023-05-16T23:41:11.199Z,15.35
2023-05-16T23:43:44.829Z,15.32
2023-05-16T23:46:18.241Z,15.30
2023-05-16T23:48:52.488Z,15.30
2023-05-16T23:51:26.481Z,15.28
2023-05-16T23:54:00.878Z,15.28
2023-05-16T23:56:34.311Z,15.28
2023-05-16T23:59:07.810Z,15.29
